Time;durP1;ratioP1;P1;durP2;ratioP2;P2;SDS_P1;SDS_P2;PMS_P1;PMS_P2;Temp;Humidity;BMP_temperature;BMP_pressure;BME280_temperature;BME280_humidity;BME280_pressure;Samples;Min_cycle;Max_cycle;Signal;HPM_P1;HPM_P2
2022/05/12 00:00:26;;;;;;;2.63;2.43;;;15.90;97.20;;;;;;5117271;28;20445;-77
2022/05/12 00:02:55;;;;;;;2.27;2.07;;;15.90;97.30;;;;;;5119534;28;20479;-77
2022/05/12 00:05:25;;;;;;;4.07;1.90;;;15.90;97.60;;;;;;5117945;28;20450;-77
2022/05/12 00:07:53;;;;;;;2.20;2.00;;;15.90;97.40;;;;;;5119087;28;20432;-77
2022/05/12 00:10:24;;;;;;;2.93;2.53;;;15.90;97.40;;;;;;5117460;28;20469;-77
2022/05/12 00:12:54;;;;;;;3.43;2.17;;;15.90;97.60;;;;;;5117109;28;20465;-77
2022/05/12 00:15:26;;;;;;;2.40;2.20;;;15.90;97.60;;;;;;5117775;28;20489;-77
2022/05/12 00:17:54;;;;;;;2.40;1.83;;;15.90;97.60;;;;;;5117548;28;20854;-77
2022/05/12 00:20:24;;;;;;;3.83;2.40;;;15.80;97.60;;;;;;5116815;28;20465;-77
2022/05/12 00:23:06;;;;;;;3.50;2.23;;;15.80;97.50;;;;;;5117039;28;20472;-77
2022/05/12 00:25:34;;;;;;;3.00;2.50;;;15.80;97.50;;;;;;5117375;27;20849;-77
2022/05/12 00:28:02;;;;;;;2.90;2.40;;;15.70;97.30;;;;;;5119230;28;20406;-77
2022/05/12 00:30:30;;;;;;;3.67;2.50;;;15.70;97.20;;;;;;5117316;28;20793;-78
2022/05/12 00:32:59;;;;;;;5.60;2.67;;;15.60;97.20;;;;;;5116710;28;20409;-77
2022/05/12 00:35:28;;;;;;;3.70;2.20;;;15.60;97.10;;;;;;5116361;28;20464;-77
2022/05/12 00:37:57;;;;;;;4.00;2.77;;;15.60;97.10;;;;;;5117024;28;20827;-77
2022/05/12 00:40:26;;;;;;;4.77;2.30;;;15.50;97.00;;;;;;5116078;28;20466;-77
2022/05/12 00:42:58;;;;;;;4.23;2.70;;;15.50;97.00;;;;;;5116327;28;20446;-77
2022/05/12 00:45:27;;;;;;;6.33;2.80;;;15.50;97.00;;;;;;5117931;28;20448;-77
2022/05/12 00:47:56;;;;;;;4.30;2.63;;;15.50;96.90;;;;;;5116353;28;20462;-77
2022/05/12 00:50:31;;;;;;;3.43;2.60;;;15.40;96.80;;;;;;5117612;28;20525;-77
2022/05/12 00:53:00;;;;;;;3.90;2.40;;;15.40;96.70;;;;;;5118130;27;20496;-77
2022/05/12 00:55:33;;;;;;;6.30;2.77;;;15.30;96.60;;;;;;5116678;28;20414;-77
2022/05/12 00:58:05;;;;;;;4.70;2.27;;;15.30;96.50;;;;;;5116808;28;20419;-77
2022/05/12 01:00:34;;;;;;;4.63;2.90;;;15.20;96.40;;;;;;5116246;28;20558;-77
2022/05/12 01:03:07;;;;;;;4.13;2.63;;;15.20;96.30;;;;;;5117389;28;20517;-77
2022/05/12 01:05:37;;;;;;;5.10;2.77;;;15.10;96.20;;;;;;5116730;28;20442;-77
2022/05/12 01:08:06;;;;;;;7.37;3.33;;;15.10;96.20;;;;;;5115991;28;20538;-77
2022/05/12 01:10:34;;;;;;;5.60;3.47;;;15.10;96.20;;;;;;5115960;28;21041;-77
2022/05/12 01:13:03;;;;;;;5.67;3.10;;;15.00;96.10;;;;;;5115813;28;20505;-77
2022/05/12 01:15:31;;;;;;;5.73;3.03;;;15.00;96.10;;;;;;5116466;28;20447;-77
2022/05/12 01:18:04;;;;;;;7.63;3.23;;;14.90;96.10;;;;;;5116207;28;20462;-77
2022/05/12 01:20:33;;;;;;;4.30;2.80;;;14.90;96.10;;;;;;5115283;28;20557;-77
2022/05/12 01:23:06;;;;;;;6.93;3.23;;;14.80;96.10;;;;;;5117011;28;20520;-77
2022/05/12 01:25:36;;;;;;;4.50;2.70;;;14.80;96.10;;;;;;5115549;28;20414;-77
2022/05/12 01:28:05;;;;;;;5.63;2.57;;;14.70;96.00;;;;;;5117226;28;20474;-77
2022/05/12 01:30:33;;;;;;;5.33;2.40;;;14.70;95.90;;;;;;5115492;28;20463;-77
2022/05/12 01:33:01;;;;;;;6.17;2.50;;;14.60;95.80;;;;;;5116258;28;21019;-77
2022/05/12 01:35:29;;;;;;;4.70;1.63;;;14.50;95.70;;;;;;5115664;28;20447;-77
2022/05/12 01:37:58;;;;;;;4.13;2.20;;;14.40;95.70;;;;;;5115168;28;20543;-76
2022/05/12 01:40:26;;;;;;;4.37;1.70;;;14.30;95.60;;;;;;5115161;28;20555;-77
2022/05/12 01:42:57;;;;;;;4.30;1.80;;;14.20;95.90;;;;;;5114737;28;20430;-76
2022/05/12 01:45:26;;;;;;;2.53;1.40;;;14.20;95.60;;;;;;5114686;28;20443;-77
2022/05/12 01:47:54;;;;;;;6.90;2.10;;;14.10;95.60;;;;;;5116172;28;20447;-77
2022/05/12 01:50:22;;;;;;;4.67;1.77;;;14.00;95.50;;;;;;5116012;27;20481;-77
2022/05/12 01:52:51;;;;;;;4.83;1.90;;;13.90;95.60;;;;;;5114639;28;20447;-77
2022/05/12 01:55:21;;;;;;;2.63;1.30;;;13.90;95.70;;;;;;5115212;28;20448;-76
2022/05/12 01:57:49;;;;;;;3.10;1.70;;;13.80;95.60;;;;;;5114949;28;20473;-77
2022/05/12 02:00:21;;;;;;;4.27;1.80;;;13.80;95.70;;;;;;5116366;28;20451;-77
2022/05/12 02:02:50;;;;;;;3.23;1.60;;;13.70;95.70;;;;;;5114498;28;20440;-77
2022/05/12 02:05:18;;;;;;;2.57;1.80;;;13.70;95.70;;;;;;5114143;28;20612;-77
2022/05/12 02:07:48;;;;;;;3.37;1.50;;;13.60;95.80;;;;;;5114081;28;20500;-77
2022/05/12 02:10:19;;;;;;;5.30;1.60;;;13.60;95.80;;;;;;5114706;28;20459;-76
2022/05/12 02:12:48;;;;;;;3.40;1.10;;;13.50;95.80;;;;;;5114077;28;20859;-76
2022/05/12 02:15:18;;;;;;;4.87;1.40;;;13.40;95.80;;;;;;5115073;28;20435;-77
2022/05/12 02:17:46;;;;;;;3.87;1.60;;;13.40;95.80;;;;;;5114055;28;20558;-77
2022/05/12 02:20:15;;;;;;;3.20;1.23;;;13.40;95.90;;;;;;5114156;28;20467;-77
2022/05/12 02:22:43;;;;;;;2.83;1.37;;;13.30;95.90;;;;;;5113819;28;20446;-77
2022/05/12 02:25:12;;;;;;;1.70;0.97;;;13.30;95.90;;;;;;5114647;28;20562;-77
2022/05/12 02:27:45;;;;;;;4.53;1.70;;;13.20;96.20;;;;;;5113579;28;20443;-76
2022/05/12 02:30:16;;;;;;;1.53;0.90;;;13.20;95.90;;;;;;5113705;28;20463;-77
2022/05/12 02:32:45;;;;;;;3.20;1.57;;;13.10;96.00;;;;;;5113661;28;20450;-77
2022/05/12 02:35:14;;;;;;;4.00;1.33;;;13.10;96.00;;;;;;5113488;28;20469;-76
2022/05/12 02:37:43;;;;;;;2.10;1.17;;;13.00;96.00;;;;;;5113056;28;20447;-77
2022/05/12 02:40:13;;;;;;;2.07;1.00;;;13.00;96.10;;;;;;5113130;28;20482;-77
2022/05/12 02:42:42;;;;;;;2.67;1.30;;;13.00;96.10;;;;;;5114402;28;20420;-76
2022/05/12 02:45:11;;;;;;;4.77;1.63;;;13.00;96.20;;;;;;5113302;28;20467;-77
2022/05/12 02:47:40;;;;;;;3.60;1.40;;;12.90;96.20;;;;;;5114333;28;20446;-77
2022/05/12 02:50:12;;;;;;;4.13;1.30;;;12.90;96.20;;;;;;5115802;28;20455;-77
2022/05/12 02:52:40;;;;;;;2.97;1.27;;;12.90;96.20;;;;;;5115228;28;20426;-77
2022/05/12 02:55:09;;;;;;;3.30;1.83;;;12.80;96.20;;;;;;5114370;28;20551;-76
2022/05/12 02:57:40;;;;;;;2.57;1.40;;;12.80;96.20;;;;;;5113359;28;20458;-77
2022/05/12 03:00:12;;;;;;;4.63;1.80;;;12.80;96.30;;;;;;5113244;28;20470;-77
2022/05/12 03:02:40;;;;;;;3.83;1.50;;;12.70;96.30;;;;;;5113206;28;20507;-77
2022/05/12 03:05:11;;;;;;;2.83;1.50;;;12.70;96.30;;;;;;5113084;28;20996;-76
2022/05/12 03:07:40;;;;;;;3.57;1.27;;;12.70;96.30;;;;;;5113137;28;20538;-76
2022/05/12 03:10:11;;;;;;;3.50;1.80;;;12.70;96.30;;;;;;5112952;28;21034;-76
2022/05/12 03:12:39;;;;;;;3.60;1.90;;;12.60;96.30;;;;;;5114457;28;20432;-76
2022/05/12 03:15:08;;;;;;;3.87;1.80;;;12.60;96.30;;;;;;5112971;28;20447;-76
2022/05/12 03:17:43;;;;;;;4.97;2.40;;;12.60;96.30;;;;;;5112611;28;20428;-76
2022/05/12 03:20:16;;;;;;;4.30;2.37;;;12.50;96.30;;;;;;5114075;28;20524;-76
2022/05/12 03:22:45;;;;;;;5.63;2.67;;;12.50;96.50;;;;;;5112524;28;20479;-76
2022/05/12 03:25:14;;;;;;;4.17;2.20;;;12.50;96.50;;;;;;5112566;28;20467;-76
2022/05/12 03:27:43;;;;;;;4.77;2.73;;;12.50;96.60;;;;;;5112622;28;20443;-76
2022/05/12 03:30:14;;;;;;;3.70;2.30;;;12.40;96.60;;;;;;5113927;28;20478;-76
2022/05/12 03:32:43;;;;;;;5.80;2.70;;;12.40;96.70;;;;;;5114092;28;20438;-76
2022/05/12 03:35:13;;;;;;;3.90;2.80;;;12.30;96.70;;;;;;5112430;28;20963;-76
2022/05/12 03:37:42;;;;;;;4.93;3.00;;;12.30;96.80;;;;;;5114565;28;20811;-77
2022/05/12 03:40:13;;;;;;;4.57;2.90;;;12.30;96.80;;;;;;5112339;28;20556;-76
2022/05/12 03:42:42;;;;;;;5.20;3.33;;;12.30;96.90;;;;;;5113735;28;20855;-76
2022/05/12 03:45:10;;;;;;;6.30;3.00;;;12.20;96.90;;;;;;5112389;28;20467;-76
2022/05/12 03:47:41;;;;;;;4.57;2.83;;;12.20;97.00;;;;;;5112320;28;20447;-76
2022/05/12 03:50:13;;;;;;;6.47;3.83;;;12.20;97.00;;;;;;5112394;28;21028;-76
2022/05/12 03:52:47;;;;;;;4.57;3.20;;;12.20;97.10;;;;;;5112375;28;20525;-76
2022/05/12 03:55:17;;;;;;;5.00;3.17;;;12.10;97.10;;;;;;5112446;28;20451;-76
2022/05/12 03:57:46;;;;;;;4.53;2.53;;;12.10;97.20;;;;;;5114099;28;20516;-76
2022/05/12 04:00:18;;;;;;;6.43;3.17;;;12.10;97.20;;;;;;5112175;28;20463;-76
2022/05/12 04:02:47;;;;;;;5.80;3.20;;;12.10;97.30;;;;;;5113693;28;20486;-76
2022/05/12 04:05:18;;;;;;;5.60;3.10;;;12.00;97.20;;;;;;5113298;28;20463;-76
2022/05/12 04:07:51;;;;;;;4.83;3.17;;;12.00;97.30;;;;;;5115679;28;20423;-77
2022/05/12 04:10:19;;;;;;;4.40;3.10;;;12.00;97.30;;;;;;5115984;28;20475;-76
2022/05/12 04:12:47;;;;;;;3.80;3.00;;;12.00;97.40;;;;;;5115995;28;21001;-76
2022/05/12 04:15:16;;;;;;;6.10;3.40;;;12.00;97.40;;;;;;5115818;28;20527;-77
2022/05/12 04:17:44;;;;;;;6.17;3.20;;;12.00;97.50;;;;;;5115794;28;20469;-77
2022/05/12 04:20:14;;;;;;;3.87;3.10;;;12.00;97.50;;;;;;5115722;28;20546;-76
2022/05/12 04:22:44;;;;;;;4.10;3.03;;;12.00;97.60;;;;;;5115718;28;20451;-76
2022/05/12 04:25:13;;;;;;;3.07;2.40;;;12.00;97.70;;;;;;5115514;28;20467;-76
2022/05/12 04:27:42;;;;;;;6.20;3.43;;;12.00;97.70;;;;;;5115669;28;20447;-76
2022/05/12 04:30:13;;;;;;;6.30;3.47;;;12.00;97.70;;;;;;5115856;27;20555;-77
2022/05/12 04:32:41;;;;;;;3.70;3.13;;;12.00;97.70;;;;;;5117265;28;20473;-76
2022/05/12 04:35:13;;;;;;;2.90;2.43;;;12.00;97.70;;;;;;5115626;28;20543;-76
2022/05/12 04:37:45;;;;;;;4.93;2.87;;;12.00;97.80;;;;;;5115277;28;20943;-77
2022/05/12 04:40:21;;;;;;;5.80;2.73;;;12.00;97.80;;;;;;5115501;28;20463;-76
2022/05/12 04:42:50;;;;;;;3.70;2.80;;;12.00;97.90;;;;;;5115365;28;20522;-77
2022/05/12 04:45:20;;;;;;;5.57;2.70;;;12.00;97.90;;;;;;5116446;28;20516;-76
2022/05/12 04:47:49;;;;;;;3.70;2.57;;;12.00;97.90;;;;;;5115483;28;20444;-76
2022/05/12 04:50:22;;;;;;;4.17;2.60;;;12.00;97.90;;;;;;5115075;28;20474;-77
2022/05/12 04:52:52;;;;;;;3.33;2.30;;;12.00;98.00;;;;;;5116583;28;20516;-76
2022/05/12 04:55:21;;;;;;;2.80;2.33;;;12.00;98.00;;;;;;5115026;28;20432;-76
2022/05/12 04:57:53;;;;;;;4.03;2.83;;;11.90;98.00;;;;;;5116260;28;20439;-76
2022/05/12 05:00:23;;;;;;;3.37;2.60;;;12.00;98.10;;;;;;5114913;28;20471;-76
2022/05/12 05:02:52;;;;;;;4.80;2.87;;;12.00;98.10;;;;;;5116645;28;20518;-76
2022/05/12 05:05:20;;;;;;;3.70;2.70;;;12.00;98.10;;;;;;5114951;28;20532;-76
2022/05/12 05:07:48;;;;;;;4.23;2.87;;;12.00;98.20;;;;;;5114791;28;20521;-76
2022/05/12 05:10:18;;;;;;;3.83;2.63;;;12.00;98.20;;;;;;5116208;28;20451;-76
2022/05/12 05:12:46;;;;;;;5.70;3.00;;;12.00;98.30;;;;;;5114690;28;20482;-76
2022/05/12 05:15:16;;;;;;;3.47;2.80;;;12.00;98.30;;;;;;5116225;28;20440;-76
2022/05/12 05:17:45;;;;;;;2.67;2.10;;;12.00;98.40;;;;;;5114587;28;20453;-76
2022/05/12 05:20:16;;;;;;;5.57;3.60;;;12.00;98.40;;;;;;5115320;28;20504;-76
2022/05/12 05:22:46;;;;;;;4.60;3.20;;;12.10;98.50;;;;;;5118655;27;20431;-76
2022/05/12 05:25:15;;;;;;;5.00;3.40;;;12.10;98.60;;;;;;5115898;28;21067;-76
2022/05/12 05:27:45;;;;;;;4.60;3.57;;;12.10;98.60;;;;;;5116292;28;20865;-76
2022/05/12 05:30:18;;;;;;;3.70;3.40;;;12.10;98.60;;;;;;5114450;28;20984;-76
2022/05/12 05:32:46;;;;;;;3.93;3.43;;;12.20;98.70;;;;;;5115747;28;20411;-76
2022/05/12 05:35:15;;;;;;;3.67;3.37;;;12.20;98.70;;;;;;5115653;28;20446;-76
2022/05/12 05:37:44;;;;;;;4.57;3.43;;;12.30;98.80;;;;;;5115558;28;20928;-76
2022/05/12 05:40:16;;;;;;;5.93;3.60;;;12.30;99.10;;;;;;5115425;28;20451;-76
2022/05/12 05:42:46;;;;;;;6.80;3.73;;;12.40;98.90;;;;;;5115670;28;20434;-76
2022/05/12 05:45:17;;;;;;;5.00;3.40;;;12.50;98.90;;;;;;5114030;28;21068;-76
2022/05/12 05:47:48;;;;;;;7.07;4.20;;;12.60;98.90;;;;;;5114165;28;20447;-76
2022/05/12 05:50:19;;;;;;;7.63;3.70;;;12.80;98.90;;;;;;5113952;28;20475;-76
2022/05/12 05:55:34;;;;;;;4.40;3.27;;;13.20;99.00;;;;;;5114095;28;20450;-76
2022/05/12 05:58:06;;;;;;;4.73;2.80;;;13.50;99.00;;;;;;5115527;28;20486;-76
2022/05/12 06:00:36;;;;;;;3.90;2.87;;;13.70;98.90;;;;;;5115215;27;20461;-77
2022/05/12 06:03:06;;;;;;;3.30;2.90;;;14.00;98.80;;;;;;5114562;28;20542;-77
2022/05/12 06:05:34;;;;;;;3.60;3.00;;;14.20;98.70;;;;;;5114497;28;20467;-77
2022/05/12 06:08:03;;;;;;;4.83;2.60;;;14.40;98.60;;;;;;5116028;28;20878;-77
2022/05/12 06:10:32;;;;;;;3.90;2.30;;;14.70;98.60;;;;;;5116145;28;20824;-77
2022/05/12 06:13:00;;;;;;;4.90;2.57;;;14.90;98.50;;;;;;5116272;27;20484;-77
2022/05/12 06:15:30;;;;;;;6.97;2.67;;;15.10;98.20;;;;;;5115130;28;20471;-77
2022/05/12 06:17:58;;;;;;;3.60;2.73;;;15.30;98.00;;;;;;5114718;28;20435;-77
2022/05/12 06:20:26;;;;;;;3.27;2.97;;;15.50;97.70;;;;;;5114191;28;20467;-77
2022/05/12 06:22:55;;;;;;;4.77;2.50;;;15.70;97.60;;;;;;5114911;28;20447;-77
2022/05/12 06:25:23;;;;;;;3.27;2.63;;;15.90;97.40;;;;;;5114693;28;20952;-77
2022/05/12 06:27:52;;;;;;;4.10;2.70;;;16.10;97.30;;;;;;5116483;28;20853;-77
2022/05/12 06:30:20;;;;;;;3.90;2.70;;;16.20;97.20;;;;;;5116805;28;20455;-77
2022/05/12 06:32:51;;;;;;;3.10;2.60;;;16.40;97.00;;;;;;5115602;28;20792;-77
2022/05/12 06:35:20;;;;;;;4.93;2.60;;;16.60;96.90;;;;;;5116977;28;20452;-78
2022/05/12 06:37:48;;;;;;;4.37;2.60;;;16.80;96.70;;;;;;5115900;28;20493;-77
2022/05/12 06:40:17;;;;;;;5.57;2.80;;;17.00;96.40;;;;;;5115516;28;20499;-77
2022/05/12 06:42:51;;;;;;;3.80;2.40;;;17.20;96.20;;;;;;5118212;28;20834;-77
2022/05/12 06:45:22;;;;;;;4.20;2.17;;;17.30;96.00;;;;;;5116638;28;20454;-78
2022/05/12 06:47:53;;;;;;;7.70;2.30;;;17.40;95.70;;;;;;5116653;28;20398;-78
2022/05/12 06:50:24;;;;;;;6.07;3.00;;;17.50;95.50;;;;;;5117052;28;20538;-78
2022/05/12 06:52:53;;;;;;;7.60;2.83;;;17.60;95.70;;;;;;5116980;28;20479;-77
2022/05/12 06:55:22;;;;;;;4.10;2.70;;;17.80;95.20;;;;;;5117931;28;20418;-77
2022/05/12 06:57:51;;;;;;;3.90;2.70;;;17.90;95.10;;;;;;5118301;28;20466;-78
2022/05/12 07:00:20;;;;;;;4.63;2.03;;;18.00;95.00;;;;;;5116150;28;20465;-78
2022/05/12 07:02:49;;;;;;;3.97;2.10;;;18.20;94.90;;;;;;5117348;28;20431;-78
2022/05/12 07:05:21;;;;;;;3.50;2.70;;;18.30;94.80;;;;;;5116401;28;20447;-78
2022/05/12 07:07:50;;;;;;;3.80;2.47;;;18.40;94.70;;;;;;5117755;28;20455;-79
2022/05/12 07:10:21;;;;;;;6.93;2.77;;;18.50;94.70;;;;;;5118022;28;20835;-78
2022/05/12 07:12:49;;;;;;;6.30;2.60;;;18.50;94.40;;;;;;5118166;28;20420;-78
2022/05/12 07:15:18;;;;;;;4.20;2.90;;;18.70;94.30;;;;;;5118262;28;20475;-78
2022/05/12 07:17:46;;;;;;;4.40;2.50;;;18.80;94.00;;;;;;5117890;28;20461;-78
2022/05/12 07:28:44;;;;;;;5.37;2.90;;;19.00;93.20;;;;;;5119845;28;20502;-79
2022/05/12 07:31:13;;;;;;;6.03;3.30;;;19.00;93.00;;;;;;5119113;28;20459;-78
2022/05/12 07:33:43;;;;;;;6.00;3.00;;;19.10;92.90;;;;;;5129687;28;20435;-78
2022/05/12 07:36:14;;;;;;;4.53;2.50;;;19.10;92.60;;;;;;5127673;28;20439;-78
2022/05/12 07:38:45;;;;;;;3.50;2.37;;;19.10;92.60;;;;;;5126393;28;20485;-79
2022/05/12 07:41:14;;;;;;;3.90;2.67;;;19.20;92.60;;;;;;5128594;28;20514;-79
2022/05/12 07:43:43;;;;;;;4.90;2.90;;;19.30;92.40;;;;;;5131628;28;20423;-79
2022/05/12 07:46:15;;;;;;;5.67;3.03;;;19.40;92.20;;;;;;5129592;28;21014;-77
2022/05/12 07:48:44;;;;;;;4.60;2.77;;;19.50;92.10;;;;;;5130365;28;20475;-78
2022/05/12 07:51:12;;;;;;;3.40;2.40;;;19.60;91.90;;;;;;5131495;28;20490;-78
2022/05/12 07:53:41;;;;;;;6.80;3.03;;;19.60;91.80;;;;;;5131323;28;20522;-79
2022/05/12 07:56:10;;;;;;;3.70;2.33;;;19.70;91.90;;;;;;5132025;28;20455;-79
2022/05/12 07:58:39;;;;;;;4.50;2.37;;;19.80;91.90;;;;;;5131235;28;20581;-79
2022/05/12 08:01:07;;;;;;;5.43;2.40;;;19.90;91.90;;;;;;5132571;28;20994;-78
2022/05/12 08:03:36;;;;;;;4.13;2.97;;;20.10;91.80;;;;;;5135040;28;20427;-79
2022/05/12 08:06:04;;;;;;;3.93;3.10;;;20.20;91.50;;;;;;5136092;28;20443;-79
2022/05/12 08:08:35;;;;;;;3.93;2.63;;;20.30;91.40;;;;;;5133339;28;20458;-79
2022/05/12 08:11:06;;;;;;;4.10;3.50;;;20.30;91.20;;;;;;5128607;28;20459;-80
2022/05/12 08:13:36;;;;;;;3.80;2.37;;;20.40;91.20;;;;;;5130634;28;20507;-80
2022/05/12 08:16:06;;;;;;;3.57;2.50;;;20.40;91.00;;;;;;5132726;28;20471;-80
2022/05/12 08:18:36;;;;;;;2.97;2.20;;;20.50;90.90;;;;;;5130937;28;20478;-80
2022/05/12 08:21:05;;;;;;;4.53;2.30;;;20.60;90.70;;;;;;5130489;28;20517;-80
2022/05/12 08:23:33;;;;;;;4.67;2.73;;;20.60;90.50;;;;;;5132924;28;20443;-81
2022/05/12 08:26:02;;;;;;;3.90;2.47;;;20.70;90.30;;;;;;5131101;28;20474;-80
2022/05/12 08:28:30;;;;;;;3.83;2.30;;;20.70;90.30;;;;;;5115669;27;20470;-80
2022/05/12 08:30:59;;;;;;;3.27;2.20;;;20.80;90.30;;;;;;5106480;28;20464;-81
2022/05/12 08:33:33;;;;;;;3.80;2.00;;;20.90;90.10;;;;;;5107331;28;20436;-79
2022/05/12 08:36:01;;;;;;;6.20;2.57;;;21.00;89.90;;;;;;5115871;28;20447;-81
2022/05/12 08:38:31;;;;;;;3.40;2.00;;;21.00;89.80;;;;;;5125546;27;20454;-81
2022/05/12 08:41:12;;;;;;;3.27;1.67;;;21.10;89.70;;;;;;5125802;28;20565;-80
2022/05/12 08:43:52;;;;;;;2.40;1.60;;;21.20;88.90;;;;;;5122795;28;20427;-80
2022/05/12 08:46:25;;;;;;;4.67;1.70;;;21.30;88.60;;;;;;5122766;28;20510;-81
2022/05/12 08:49:07;;;;;;;2.73;1.80;;;21.30;88.30;;;;;;5125913;28;20451;-80
2022/05/12 08:51:37;;;;;;;2.70;1.47;;;21.40;87.60;;;;;;5125860;28;20471;-80
2022/05/12 08:54:13;;;;;;;3.47;1.70;;;21.40;87.10;;;;;;5125516;28;20451;-80
2022/05/12 08:56:41;;;;;;;2.60;1.40;;;21.40;86.70;;;;;;5127836;28;20435;-80
2022/05/12 08:59:10;;;;;;;3.97;1.50;;;21.50;86.50;;;;;;5128720;28;20431;-80
2022/05/12 09:01:50;;;;;;;2.40;1.40;;;21.60;85.70;;;;;;5128756;28;20466;-80
2022/05/12 09:04:37;;;;;;;3.17;1.60;;;21.60;84.50;;;;;;5126494;28;20857;-80
2022/05/12 09:07:12;;;;;;;2.70;1.60;;;21.60;84.00;;;;;;5127574;28;20504;-79
2022/05/12 09:09:49;;;;;;;4.87;1.90;;;21.60;83.80;;;;;;5128821;28;20430;-80
2022/05/12 09:12:31;;;;;;;3.73;1.43;;;21.50;83.20;;;;;;5126017;28;20447;-80
2022/05/12 09:15:04;;;;;;;3.87;1.53;;;21.50;83.20;;;;;;5124206;28;20444;-79
2022/05/12 09:17:40;;;;;;;2.60;1.30;;;21.60;83.10;;;;;;5123742;28;20442;-80
2022/05/12 09:20:09;;;;;;;2.30;1.30;;;21.60;82.60;;;;;;5125200;28;20498;-80
2022/05/12 09:22:40;;;;;;;2.43;1.33;;;21.50;81.90;;;;;;5125237;28;20475;-80
2022/05/12 09:25:10;;;;;;;3.20;1.13;;;21.30;81.30;;;;;;5126178;28;20424;-80
2022/05/12 09:27:44;;;;;;;1.93;1.40;;;21.40;81.30;;;;;;5125260;28;20498;-79
2022/05/12 09:30:13;;;;;;;2.47;1.07;;;21.40;80.40;;;;;;5123721;28;20520;-80
2022/05/12 09:32:42;;;;;;;2.13;1.20;;;21.50;80.20;;;;;;5124374;28;20452;-80
2022/05/12 09:35:22;;;;;;;2.70;1.30;;;21.60;79.70;;;;;;5124256;28;20482;-79
2022/05/12 09:37:51;;;;;;;2.23;1.20;;;21.60;79.50;;;;;;5121465;28;20448;-78
2022/05/12 09:40:34;;;;;;;3.17;1.30;;;21.70;79.30;;;;;;5108630;28;20471;-73
2022/05/12 09:43:17;;;;;;;2.03;1.10;;;21.80;79.10;;;;;;5115446;28;20443;-74
2022/05/12 09:46:02;;;;;;;2.27;1.13;;;21.70;78.30;;;;;;5116028;28;20482;-74
2022/05/12 09:48:33;;;;;;;3.27;1.23;;;21.50;77.20;;;;;;5114389;28;20468;-77
2022/05/12 09:51:22;;;;;;;6.90;2.50;;;21.40;77.30;;;;;;5121544;27;20865;-78
2022/05/12 09:53:52;;;;;;;4.20;1.00;;;21.50;77.00;;;;;;5122606;27;20443;-78
2022/05/12 09:56:30;;;;;;;3.30;1.10;;;21.50;76.70;;;;;;5121421;27;20983;-78
2022/05/12 09:59:06;;;;;;;2.50;1.17;;;21.50;75.80;;;;;;5119349;28;20522;-78
2022/05/12 10:01:37;;;;;;;5.00;1.90;;;21.60;76.40;;;;;;5120192;28;20534;-78
2022/05/12 10:10:05;;;;;;;9.50;2.90;;;21.80;74.70;;;;;;5111377;28;20488;-78
2022/05/12 10:12:39;;;;;;;2.13;1.20;;;21.90;74.60;;;;;;5121173;28;20435;-78
2022/05/12 10:15:19;;;;;;;11.87;3.03;;;22.00;74.70;;;;;;5121453;28;20443;-78
2022/05/12 10:17:49;;;;;;;21.80;5.17;;;22.10;74.00;;;;;;5123419;28;20794;-79
2022/05/12 10:20:21;;;;;;;10.03;3.67;;;22.20;72.90;;;;;;5122204;28;20463;-78
2022/05/12 10:22:56;;;;;;;1.60;1.03;;;22.20;72.70;;;;;;5120712;28;20467;-79
2022/05/12 10:25:55;;;;;;;2.23;1.37;;;22.20;72.60;;;;;;5121095;28;20518;-78
2022/05/12 10:28:33;;;;;;;7.00;1.93;;;22.20;72.00;;;;;;5120820;28;20984;-78
2022/05/12 10:31:12;;;;;;;9.83;1.80;;;22.10;71.80;;;;;;5123358;28;20827;-78
2022/05/12 10:33:53;;;;;;;7.83;1.83;;;22.00;71.40;;;;;;5128208;28;20432;-79
2022/05/12 10:36:41;;;;;;;2.57;1.10;;;21.90;71.60;;;;;;5104898;28;20447;-79
2022/05/12 10:39:17;;;;;;;1.90;1.00;;;21.80;71.00;;;;;;5104003;28;20886;-78
2022/05/12 10:42:01;;;;;;;2.57;1.30;;;21.80;71.30;;;;;;5103064;28;20497;-78
2022/05/12 10:44:57;;;;;;;3.00;1.00;;;21.80;72.10;;;;;;5103983;28;20433;-78
2022/05/12 10:47:40;;;;;;;2.50;1.17;;;21.70;70.50;;;;;;5104377;28;20454;-78
2022/05/12 10:50:18;;;;;;;3.10;1.43;;;21.60;70.10;;;;;;5103143;28;20464;-78
2022/05/12 10:52:55;;;;;;;2.33;0.90;;;21.60;70.40;;;;;;5102419;28;20448;-78
2022/05/12 10:55:30;;;;;;;3.87;2.83;;;21.60;70.30;;;;;;5102910;28;20893;-78
2022/05/12 10:58:19;;;;;;;2.87;1.10;;;21.60;70.00;;;;;;5101576;28;20466;-78
2022/05/12 11:01:04;;;;;;;2.87;1.10;;;21.70;69.60;;;;;;5102609;28;21003;-78
2022/05/12 11:03:39;;;;;;;3.20;1.20;;;21.70;69.50;;;;;;5103361;28;20441;-79
2022/05/12 11:06:12;;;;;;;3.30;1.57;;;21.70;69.20;;;;;;5101648;28;20783;-78
2022/05/12 11:08:47;;;;;;;2.50;1.17;;;21.70;69.50;;;;;;5102374;28;20490;-78
2022/05/12 11:11:20;;;;;;;2.63;1.13;;;21.90;69.90;;;;;;5103095;28;20463;-78
2022/05/12 11:13:52;;;;;;;2.97;1.30;;;22.00;69.40;;;;;;5112222;28;20797;-78
2022/05/12 11:16:24;;;;;;;2.13;1.33;;;22.00;69.40;;;;;;5112684;28;20472;-79
2022/05/12 11:19:02;;;;;;;2.90;1.10;;;22.00;68.40;;;;;;5112640;28;20472;-78
2022/05/12 11:21:31;;;;;;;2.50;1.07;;;22.00;68.40;;;;;;5109815;28;20497;-78
2022/05/12 11:24:17;;;;;;;2.03;1.20;;;21.90;67.90;;;;;;5102703;28;20436;-78
2022/05/12 11:26:57;;;;;;;4.13;1.80;;;21.80;67.50;;;;;;5100684;28;20428;-78
2022/05/12 11:29:44;;;;;;;3.13;1.10;;;21.60;67.40;;;;;;5100086;28;20575;-78
2022/05/12 11:32:27;;;;;;;1.97;1.00;;;21.50;67.50;;;;;;5100788;28;20439;-78
2022/05/12 11:35:01;;;;;;;2.17;1.00;;;21.60;67.90;;;;;;5099738;28;20441;-78
2022/05/12 11:37:34;;;;;;;5.40;1.37;;;21.60;68.00;;;;;;5100957;28;20835;-78
2022/05/12 11:40:08;;;;;;;5.73;1.90;;;21.60;68.00;;;;;;5099905;28;20984;-78
2022/05/12 11:45:49;;;;;;;4.20;1.37;;;21.60;67.60;;;;;;5097101;28;20437;-77
2022/05/12 11:48:32;;;;;;;2.40;1.27;;;21.50;68.10;;;;;;5098970;28;20456;-78
2022/05/12 11:51:17;;;;;;;2.63;1.30;;;21.50;68.00;;;;;;5099136;28;20459;-77
2022/05/12 11:53:53;;;;;;;2.60;1.30;;;21.40;68.10;;;;;;5097884;28;20452;-78
2022/05/12 11:56:51;;;;;;;2.70;1.40;;;21.40;68.50;;;;;;5097449;28;20451;-77
2022/05/12 11:59:46;;;;;;;4.53;1.30;;;21.40;68.60;;;;;;5098437;28;20933;-78
2022/05/12 12:02:39;;;;;;;3.23;1.30;;;21.30;68.30;;;;;;5097650;28;20437;-77
2022/05/12 12:05:09;;;;;;;4.13;1.47;;;21.30;68.10;;;;;;5096535;28;20451;-77
2022/05/12 12:08:02;;;;;;;3.67;1.53;;;21.20;68.10;;;;;;5094701;28;20440;-77
2022/05/12 12:10:34;;;;;;;3.47;1.97;;;21.20;68.30;;;;;;5094361;28;20475;-77
2022/05/12 12:13:06;;;;;;;3.90;3.13;;;21.30;68.50;;;;;;5094786;28;20436;-77
2022/05/12 12:16:00;;;;;;;3.50;3.20;;;21.30;68.30;;;;;;5094904;28;20959;-77
2022/05/12 12:19:05;;;;;;;5.60;5.10;;;21.30;68.00;;;;;;5096794;28;20420;-78
2022/05/12 12:22:02;;;;;;;8.73;7.77;;;21.30;67.80;;;;;;5096834;28;20532;-78
2022/05/12 12:25:04;;;;;;;8.77;7.93;;;21.30;67.50;;;;;;5096024;28;20439;-77
2022/05/12 12:28:09;;;;;;;9.03;8.23;;;21.30;67.40;;;;;;5095000;28;20516;-77
2022/05/12 12:31:04;;;;;;;9.63;8.80;;;21.30;67.70;;;;;;5070605;28;21027;-76
2022/05/12 12:33:53;;;;;;;10.13;9.30;;;21.40;67.90;;;;;;5098733;28;20448;-77
2022/05/12 12:37:05;;;;;;;12.23;11.03;;;21.50;67.80;;;;;;5100219;28;20486;-77
2022/05/12 12:39:42;;;;;;;16.93;15.13;;;21.40;67.60;;;;;;5098248;28;20451;-77
2022/05/12 12:42:22;;;;;;;16.10;14.40;;;21.30;67.60;;;;;;5098750;28;20506;-77
2022/05/12 12:44:55;;;;;;;15.47;13.97;;;21.30;67.40;;;;;;5099334;28;20955;-78
2022/05/12 12:47:39;;;;;;;15.13;13.77;;;21.20;67.20;;;;;;5098657;28;20413;-77
2022/05/12 12:50:32;;;;;;;15.77;14.17;;;21.30;67.40;;;;;;5098522;28;20483;-77
2022/05/12 12:53:00;;;;;;;16.93;15.53;;;21.30;67.50;;;;;;5100522;28;20448;-78
2022/05/12 12:58:28;;;;;;;11.83;10.77;;;21.50;67.40;;;;;;5099331;28;20444;-78
2022/05/12 13:00:58;;;;;;;11.10;10.20;;;21.50;66.80;;;;;;5099830;28;20452;-77
2022/05/12 13:03:30;;;;;;;10.33;9.30;;;21.40;66.30;;;;;;5097082;28;20956;-77
2022/05/12 13:06:17;;;;;;;9.50;8.60;;;21.40;66.30;;;;;;5096695;28;20433;-77
2022/05/12 13:08:58;;;;;;;9.90;8.33;;;21.30;66.10;;;;;;5096359;28;20444;-77
2022/05/12 13:11:27;;;;;;;9.90;8.90;;;21.30;66.50;;;;;;5096184;28;20472;-77
2022/05/12 13:13:56;;;;;;;14.73;9.10;;;21.40;66.50;;;;;;5096759;28;20456;-77
2022/05/12 13:16:29;;;;;;;7.37;6.67;;;21.50;66.50;;;;;;5098643;28;20466;-77
2022/05/12 13:18:57;;;;;;;6.97;6.37;;;21.50;65.90;;;;;;5097385;28;20452;-77
2022/05/12 13:21:32;;;;;;;7.33;6.37;;;21.50;65.40;;;;;;5096819;28;20456;-77
2022/05/12 13:24:03;;;;;;;6.57;5.60;;;21.50;65.40;;;;;;5096790;28;20443;-77
2022/05/12 13:26:32;;;;;;;8.27;5.40;;;21.50;65.00;;;;;;5096210;28;20448;-77
2022/05/12 13:29:02;;;;;;;7.30;5.30;;;21.50;64.60;;;;;;5096110;28;20517;-77
2022/05/12 13:31:35;;;;;;;7.33;6.50;;;21.40;64.40;;;;;;5095939;28;20464;-77
2022/05/12 13:34:07;;;;;;;7.50;6.80;;;21.40;64.30;;;;;;5096994;28;20516;-77
2022/05/12 13:36:48;;;;;;;9.50;8.60;;;21.40;64.30;;;;;;5097071;28;20440;-77